Time,TemperatureF,DewpointF,PressureIn,WindDirection,WindDirectionDegrees,WindSpeedMPH,WindSpeedGustMPH,Humidity,HourlyPrecipIn,Conditions,Clouds,dailyrainin,SoftwareType,DateUTC
2013-11-08 00:11:00,41.8,27.0,30.23,NNE,30,3.0,7.0,57,0.00,,,0.00,weatherlink.com 1.10,2013-11-08 05:11:00,
2013-11-08 00:26:00,41.4,27.0,30.23,NE,39,4.0,11.0,57,0.00,,,0.00,weatherlink.com 1.10,2013-11-08 05:26:00,
2013-11-08 00:41:00,41.1,27.0,30.24,NNE,20,0.0,7.0,58,0.00,,,0.00,weatherlink.com 1.10,2013-11-08 05:41:00,
2013-11-08 00:56:00,41.1,27.0,30.24,ENE,73,1.0,8.0,58,0.00,,,0.00,weatherlink.com 1.10,2013-11-08 05:56:00,
2013-11-08 01:11:00,40.9,27.0,30.25,East,96,2.0,6.0,58,0.00,,,0.00,weatherlink.com 1.10,2013-11-08 06:11:00,
2013-11-08 01:26:00,40.8,26.0,30.25,ENE,68,1.0,9.0,57,0.00,,,0.00,weatherlink.com 1.10,2013-11-08 06:26:00,
2013-11-08 01:41:00,40.3,26.0,30.24,NNE,23,2.0,7.0,58,0.00,,,0.00,weatherlink.com 1.10,2013-11-08 06:41:00,
2013-11-08 01:56:00,39.9,26.0,30.24,SSW,195,0.0,7.0,59,0.00,,,0.00,weatherlink.com 1.10,2013-11-08 06:56:00,
2013-11-08 02:11:00,40.0,26.0,30.24,ENE,66,2.0,10.0,58,0.00,,,0.00,weatherlink.com 1.10,2013-11-08 07:11:00,
2013-11-08 02:26:00,40.1,27.0,30.25,ENE,61,2.0,9.0,60,0.00,,,0.00,weatherlink.com 1.10,2013-11-08 07:26:00,
2013-11-08 02:41:00,39.8,27.0,30.25,SE,143,1.0,8.0,60,0.00,,,0.00,weatherlink.com 1.10,2013-11-08 07:41:00,
2013-11-08 02:56:00,39.2,27.0,30.25,NE,51,0.0,5.0,61,0.00,,,0.00,weatherlink.com 1.10,2013-11-08 07:56:00,
2013-11-08 03:11:00,38.7,27.0,30.25,East,96,0.0,4.0,64,0.00,,,0.00,weatherlink.com 1.10,2013-11-08 08:11:00,
2013-11-08 03:26:00,38.2,27.0,30.25,ENE,64,0.0,4.0,65,0.00,,,0.00,weatherlink.com 1.10,2013-11-08 08:26:00,
2013-11-08 03:42:00,38.5,27.0,30.25,NE,34,3.0,5.0,63,0.00,,,0.00,weatherlink.com 1.10,2013-11-08 08:42:00,
2013-11-08 03:57:00,38.8,26.0,30.25,NE,53,1.0,7.0,61,0.00,,,0.00,weatherlink.com 1.10,2013-11-08 08:57:00,
2013-11-08 04:12:00,39.0,26.0,30.26,ENE,66,3.0,6.0,59,0.00,,,0.00,weatherlink.com 1.10,2013-11-08 09:12:00,
2013-11-08 04:27:00,38.9,25.0,30.26,NE,51,4.0,5.0,59,0.00,,,0.00,weatherlink.com 1.10,2013-11-08 09:27:00,
2013-11-08 04:42:00,38.1,26.0,30.27,SE,144,1.0,4.0,61,0.00,,,0.00,weatherlink.com 1.10,2013-11-08 09:42:00,
2013-11-08 04:57:00,36.3,26.0,30.28,WSW,238,0.0,2.0,67,0.00,,,0.00,weatherlink.com 1.10,2013-11-08 09:57:00,
2013-11-08 05:12:00,34.4,26.0,30.28,NW,308,1.0,1.0,72,0.00,,,0.00,weatherlink.com 1.10,2013-11-08 10:12:00,
2013-11-08 05:27:00,32.9,26.0,30.29,WNW,293,0.0,0.0,77,0.00,,,0.00,weatherlink.com 1.10,2013-11-08 10:27:00,
2013-11-08 05:42:00,31.9,26.0,30.29,West,276,0.0,1.0,79,0.00,,,0.00,weatherlink.com 1.10,2013-11-08 10:42:00,
2013-11-08 05:57:00,31.1,26.0,30.30,WNW,297,0.0,1.0,81,0.00,,,0.00,weatherlink.com 1.10,2013-11-08 10:57:00,
2013-11-08 06:12:00,30.8,26.0,30.30,WSW,248,0.0,3.0,82,0.00,,,0.00,weatherlink.com 1.10,2013-11-08 11:12:00,
2013-11-08 06:27:00,30.4,26.0,30.31,West,274,1.0,2.0,83,0.00,,,0.00,weatherlink.com 1.10,2013-11-08 11:27:00,
2013-11-08 06:42:00,30.1,26.0,30.32,NE,54,0.0,2.0,85,0.00,,,0.00,weatherlink.com 1.10,2013-11-08 11:42:00,
2013-11-08 06:57:00,30.1,26.0,30.32,SW,228,0.0,3.0,84,0.00,,,0.00,weatherlink.com 1.10,2013-11-08 11:57:00,
2013-11-08 07:12:00,30.1,26.0,30.32,ESE,112,0.0,5.0,85,0.00,,,0.00,weatherlink.com 1.10,2013-11-08 12:12:00,
2013-11-08 07:27:00,32.4,26.0,30.33,SSW,210,0.0,4.0,77,0.00,,,0.00,weatherlink.com 1.10,2013-11-08 12:27:00,
2013-11-08 07:42:00,33.9,26.0,30.33,WNW,285,1.0,2.0,74,0.00,,,0.00,weatherlink.com 1.10,2013-11-08 12:42:00,
2013-11-08 07:57:00,35.3,27.0,30.34,WNW,283,2.0,5.0,73,0.00,,,0.00,weatherlink.com 1.10,2013-11-08 12:57:00,
2013-11-08 08:12:00,38.1,26.0,30.34,East,100,0.0,3.0,63,0.00,,,0.00,weatherlink.com 1.10,2013-11-08 13:12:00,
2013-11-08 08:27:00,41.1,27.0,30.35,NW,320,1.0,4.0,57,0.00,,,0.00,weatherlink.com 1.10,2013-11-08 13:27:00,
2013-11-08 08:42:00,43.7,26.0,30.35,SSE,150,0.0,6.0,50,0.00,,,0.00,weatherlink.com 1.10,2013-11-08 13:42:00,
2013-11-08 08:57:00,45.6,23.0,30.36,West,260,4.0,7.0,41,0.00,,,0.00,weatherlink.com 1.10,2013-11-08 13:57:00,
2013-11-08 09:12:00,47.0,24.0,30.36,SE,130,1.0,7.0,40,0.00,,,0.00,weatherlink.com 1.10,2013-11-08 14:12:00,
2013-11-08 09:28:00,48.3,22.0,30.36,NNE,16,4.0,8.0,36,0.00,,,0.00,weatherlink.com 1.10,2013-11-08 14:28:00,
2013-11-08 09:43:00,49.3,23.0,30.36,NE,53,1.0,9.0,36,0.00,,,0.00,weatherlink.com 1.10,2013-11-08 14:43:00,
2013-11-08 09:58:00,50.5,21.0,30.35,SSW,211,1.0,7.0,31,0.00,,,0.00,weatherlink.com 1.10,2013-11-08 14:58:00,
2013-11-08 10:13:00,51.4,22.0,30.36,NNE,25,3.0,5.0,32,0.00,,,0.00,weatherlink.com 1.10,2013-11-08 15:13:00,
2013-11-08 10:28:00,52.7,18.0,30.36,ENE,76,1.0,5.0,26,0.00,,,0.00,weatherlink.com 1.10,2013-11-08 15:28:00,
2013-11-08 10:43:00,53.4,19.0,30.36,East,84,0.0,4.0,26,0.00,,,0.00,weatherlink.com 1.10,2013-11-08 15:43:00,
2013-11-08 10:58:00,53.6,18.0,30.36,ESE,120,2.0,4.0,25,0.00,,,0.00,weatherlink.com 1.10,2013-11-08 15:58:00,
2013-11-08 11:13:00,54.2,18.0,30.36,SSW,210,3.0,7.0,24,0.00,,,0.00,weatherlink.com 1.10,2013-11-08 16:13:00,
2013-11-08 11:28:00,54.5,18.0,30.36,ESE,104,0.0,5.0,24,0.00,,,0.00,weatherlink.com 1.10,2013-11-08 16:28:00,
2013-11-08 11:43:00,55.1,17.0,30.36,East,81,1.0,4.0,22,0.00,,,0.00,weatherlink.com 1.10,2013-11-08 16:43:00,
2013-11-08 11:58:00,55.1,19.0,30.36,NNE,16,2.0,5.0,24,0.00,,,0.00,weatherlink.com 1.10,2013-11-08 16:58:00,
2013-11-08 12:13:00,54.6,15.0,30.34,ESE,105,3.0,5.0,21,0.00,,,0.00,weatherlink.com 1.10,2013-11-08 17:13:00,
2013-11-08 12:28:00,55.0,19.0,30.33,South,177,4.0,6.0,24,0.00,,,0.00,weatherlink.com 1.10,2013-11-08 17:28:00,
2013-11-08 12:43:00,55.5,18.0,30.33,North,3,2.0,7.0,23,0.00,,,0.00,weatherlink.com 1.10,2013-11-08 17:43:00,
2013-11-08 12:58:00,55.4,15.0,30.32,ENE,75,2.0,6.0,20,0.00,,,0.00,weatherlink.com 1.10,2013-11-08 17:58:00,
2013-11-08 13:13:00,55.9,17.0,30.32,NE,49,2.0,6.0,22,0.00,,,0.00,weatherlink.com 1.10,2013-11-08 18:13:00,
2013-11-08 13:28:00,55.7,16.0,30.32,NE,37,4.0,6.0,21,0.00,,,0.00,weatherlink.com 1.10,2013-11-08 18:28:00,
2013-11-08 13:43:00,56.1,13.0,30.31,SW,229,2.0,4.0,18,0.00,,,0.00,weatherlink.com 1.10,2013-11-08 18:43:00,
2013-11-08 13:58:00,56.5,13.0,30.31,NNE,27,1.0,4.0,18,0.00,,,0.00,weatherlink.com 1.10,2013-11-08 18:58:00,
2013-11-08 14:13:00,56.4,13.0,30.30,East,91,3.0,9.0,18,0.00,,,0.00,weatherlink.com 1.10,2013-11-08 19:13:00,
2013-11-08 14:28:00,56.3,9.0,30.30,SE,146,3.0,10.0,15,0.00,,,0.00,weatherlink.com 1.10,2013-11-08 19:28:00,
2013-11-08 14:43:00,55.5,12.0,30.31,SW,235,1.0,10.0,18,0.00,,,0.00,weatherlink.com 1.10,2013-11-08 19:43:00,
2013-11-08 14:58:00,55.6,8.0,30.30,SSE,167,0.0,6.0,15,0.00,,,0.00,weatherlink.com 1.10,2013-11-08 19:58:00,
2013-11-08 15:13:00,55.6,11.0,30.30,ENE,77,2.0,6.0,17,0.00,,,0.00,weatherlink.com 1.10,2013-11-08 20:13:00,
2013-11-08 15:28:00,55.4,14.0,30.30,SW,235,0.0,2.0,19,0.00,,,0.00,weatherlink.com 1.10,2013-11-08 20:28:00,
2013-11-08 15:43:00,55.7,11.0,30.30,NE,42,0.0,6.0,17,0.00,,,0.00,weatherlink.com 1.10,2013-11-08 20:43:00,
2013-11-08 15:58:00,55.5,15.0,30.30,East,89,1.0,6.0,20,0.00,,,0.00,weatherlink.com 1.10,2013-11-08 20:58:00,
2013-11-08 16:13:00,55.3,15.0,30.30,ESE,108,1.0,4.0,20,0.00,,,0.00,weatherlink.com 1.10,2013-11-08 21:13:00,
2013-11-08 16:28:00,54.5,19.0,30.30,ESE,103,3.0,7.0,25,0.00,,,0.00,weatherlink.com 1.10,2013-11-08 21:28:00,
2013-11-08 16:43:00,53.9,21.0,30.31,SSW,211,0.0,4.0,28,0.00,,,0.00,weatherlink.com 1.10,2013-11-08 21:43:00,
2013-11-08 16:58:00,52.0,21.0,30.31,NE,35,1.0,3.0,30,0.00,,,0.00,weatherlink.com 1.10,2013-11-08 21:58:00,
2013-11-08 17:13:00,50.5,21.0,30.32,North,352,0.0,2.0,32,0.00,,,0.00,weatherlink.com 1.10,2013-11-08 22:13:00,
2013-11-08 17:28:00,48.8,21.0,30.33,SE,128,0.0,1.0,33,0.00,,,0.00,weatherlink.com 1.10,2013-11-08 22:28:00,
2013-11-08 17:43:00,46.9,22.0,30.33,SE,137,0.0,1.0,38,0.00,,,0.00,weatherlink.com 1.10,2013-11-08 22:43:00,
2013-11-08 17:58:00,45.2,23.0,30.33,East,91,0.0,1.0,42,0.00,,,0.00,weatherlink.com 1.10,2013-11-08 22:58:00,
2013-11-08 18:13:00,43.4,25.0,30.33,East,89,0.0,0.0,48,0.00,,,0.00,weatherlink.com 1.10,2013-11-08 23:13:00,
2013-11-08 18:28:00,42.3,26.0,30.33,East,89,0.0,0.0,52,0.00,,,0.00,weatherlink.com 1.10,2013-11-08 23:28:00,
2013-11-08 18:43:00,41.4,27.0,30.34,East,89,0.0,0.0,56,0.00,,,0.00,weatherlink.com 1.10,2013-11-08 23:43:00,
2013-11-08 18:58:00,40.5,27.0,30.34,East,89,0.0,0.0,59,0.00,,,0.00,weatherlink.com 1.10,2013-11-08 23:58:00,
2013-11-08 19:13:00,39.2,27.0,30.35,East,89,0.0,0.0,61,0.00,,,0.00,weatherlink.com 1.10,2013-11-09 00:13:00,
2013-11-08 19:28:00,37.8,27.0,30.35,East,89,0.0,0.0,66,0.00,,,0.00,weatherlink.com 1.10,2013-11-09 00:28:00,
2013-11-08 19:43:00,36.9,27.0,30.35,East,89,0.0,0.0,68,0.00,,,0.00,weatherlink.com 1.10,2013-11-09 00:43:00,
2013-11-08 19:58:00,35.9,27.0,30.36,East,89,0.0,0.0,71,0.00,,,0.00,weatherlink.com 1.10,2013-11-09 00:58:00,
2013-11-08 20:13:00,35.2,27.0,30.36,East,89,0.0,0.0,73,0.00,,,0.00,weatherlink.com 1.10,2013-11-09 01:13:00,
2013-11-08 20:29:00,34.7,28.0,30.36,East,89,0.0,0.0,75,0.00,,,0.00,weatherlink.com 1.10,2013-11-09 01:29:00,
2013-11-08 20:44:00,34.2,27.0,30.37,East,89,0.0,0.0,76,0.00,,,0.00,weatherlink.com 1.10,2013-11-09 01:44:00,
2013-11-08 20:59:00,33.6,27.0,30.37,East,89,0.0,0.0,78,0.00,,,0.00,weatherlink.com 1.10,2013-11-09 01:59:00,
2013-11-08 21:14:00,32.9,27.0,30.38,East,90,0.0,0.0,79,0.00,,,0.00,weatherlink.com 1.10,2013-11-09 02:14:00,
2013-11-08 21:29:00,32.1,28.0,30.38,East,89,0.0,0.0,83,0.00,,,0.00,weatherlink.com 1.10,2013-11-09 02:29:00,
2013-11-08 22:18:00,30.7,27.0,30.38,East,89,0.0,0.0,85,0.00,,,0.00,weatherlink.com 1.10,2013-11-09 03:18:00,
2013-11-08 22:29:00,30.6,27.0,30.38,East,90,0.0,0.0,85,0.00,,,0.00,weatherlink.com 1.10,2013-11-09 03:29:00,
2013-11-08 22:44:00,30.5,27.0,30.38,East,89,0.0,0.0,85,0.00,,,0.00,weatherlink.com 1.10,2013-11-09 03:44:00,
2013-11-08 22:59:00,30.2,27.0,30.38,East,89,0.0,0.0,86,0.00,,,0.00,weatherlink.com 1.10,2013-11-09 03:59:00,
2013-11-08 23:14:00,29.7,26.0,30.38,East,89,0.0,0.0,87,0.00,,,0.00,weatherlink.com 1.10,2013-11-09 04:14:00,
2013-11-08 23:29:00,30.0,26.0,30.38,East,89,0.0,1.0,86,0.00,,,0.00,weatherlink.com 1.10,2013-11-09 04:29:00,
2013-11-08 23:44:00,29.5,26.0,30.39,East,89,0.0,0.0,88,0.00,,,0.00,weatherlink.com 1.10,2013-11-09 04:44:00,
2013-11-08 23:59:00,29.2,26.0,30.39,East,90,0.0,0.0,89,0.00,,,0.00,weatherlink.com 1.10,2013-11-09 04:59:00,